Аэропорт
Тайвань-Таоюань (RCTP)

 RCTP / TPE

Taiwan, Province of China
TW-TAO
Тайбэй
 25.07770, 121.23300  / 106 ft

 RCTP 201600Z 05013KT 9999 FEW015 17/17 Q1025 NOSIG RMK A3029
 TAF RCTP 201100Z 2012/2118 06015KT 9999 FEW012 BKN032 BECMG 2022/2024 33005KT FEW010 BKN022 BKN050 TEMPO 2100/2106 01012KT SCT006 BKN011 BKN030 TEMPO 2106/2112 35010KT 4000 BR SCT005 BKN009 BKN020 TEMPO 2112/2118 30005KT 2000 BR SCT003 BKN006 BKN020

2020 © VATRUS division (Privacy Policy)